createdAt,value
2022-08-05T00:04:58.358Z,27.40
2022-08-05T00:10:04.153Z,27.60
2022-08-05T00:15:58.128Z,27.60
2022-08-05T00:20:36.669Z,27.60
2022-08-05T00:25:45.552Z,27.60
2022-08-05T00:30:52.235Z,27.70
2022-08-05T00:36:16.119Z,27.80
2022-08-05T00:41:51.750Z,28.00
2022-08-05T00:47:04.047Z,28.20
2022-08-05T00:52:11.598Z,28.30
2022-08-05T00:57:21.241Z,28.50
2022-08-05T01:02:27.912Z,28.70
2022-08-05T01:07:38.295Z,28.80
2022-08-05T01:13:57.465Z,28.80
2022-08-05T01:19:00.682Z,28.70
2022-08-05T01:24:16.294Z,28.70
2022-08-05T01:29:48.328Z,28.70
2022-08-05T01:35:11.310Z,28.90
2022-08-05T01:40:38.865Z,29.00
2022-08-05T01:45:45.711Z,29.10
2022-08-05T01:51:08.694Z,29.30
2022-08-05T01:58:11.256Z,29.90
2022-08-05T02:01:49.418Z,30.60
2022-08-05T02:06:55.837Z,30.80
2022-08-05T02:12:12.713Z,30.70
2022-08-05T02:18:31.908Z,30.70
2022-08-05T02:23:13.579Z,30.80
2022-08-05T02:28:34.069Z,31.00
2022-08-05T02:33:57.844Z,31.10
2022-08-05T02:39:08.616Z,31.60
2022-08-05T02:44:15.931Z,32.10
2022-08-05T02:49:23.489Z,31.80
2022-08-05T02:54:36.263Z,31.90
2022-08-05T02:59:51.976Z,32.20
2022-08-05T03:05:01.561Z,32.40
2022-08-05T03:10:07.801Z,32.70
2022-08-05T03:15:14.453Z,33.50
2022-08-05T03:20:22.517Z,33.20
2022-08-05T03:25:33.643Z,33.80
2022-08-05T03:30:58.168Z,33.80
2022-08-05T03:36:06.630Z,33.50
2022-08-05T03:41:20.020Z,33.80
2022-08-05T03:46:32.589Z,34.00
2022-08-05T03:52:36.558Z,33.80
2022-08-05T03:57:34.184Z,33.90
2022-08-05T04:02:45.265Z,34.20
2022-08-05T04:07:59.142Z,34.30
2022-08-05T04:13:05.361Z,34.50
2022-08-05T04:18:20.240Z,34.50
2022-08-05T04:24:00.261Z,34.50
2022-08-05T04:28:57.352Z,34.60
2022-08-05T04:34:18.976Z,34.90
2022-08-05T04:39:33.312Z,34.70
2022-08-05T04:44:41.889Z,34.80
2022-08-05T04:50:02.086Z,35.00
2022-08-05T04:55:14.821Z,34.70
2022-08-05T05:00:23.343Z,34.60
2022-08-05T05:05:29.874Z,34.30
2022-08-05T05:10:55.756Z,34.20
2022-08-05T05:16:06.022Z,34.10
2022-08-05T05:21:13.476Z,34.20
2022-08-05T05:26:28.863Z,34.30
2022-08-05T05:36:43.158Z,33.80
2022-08-05T05:41:54.096Z,33.90
2022-08-05T05:47:04.346Z,33.90
2022-08-05T05:52:20.220Z,33.90
2022-08-05T05:57:52.284Z,34.10
2022-08-05T06:02:59.218Z,34.10
2022-08-05T06:08:05.798Z,33.80
2022-08-05T06:13:15.607Z,33.80
2022-08-05T06:18:21.426Z,33.70
2022-08-05T06:23:43.963Z,33.90
2022-08-05T06:28:50.285Z,33.90
2022-08-05T06:34:07.590Z,34.10
2022-08-05T06:39:15.388Z,33.80
2022-08-05T06:44:22.224Z,33.50
2022-08-05T06:50:01.371Z,33.40
2022-08-05T06:54:58.192Z,33.60
2022-08-05T07:00:05.502Z,34.20
2022-08-05T07:05:19.151Z,34.70
2022-08-05T07:10:32.382Z,34.70
2022-08-05T07:16:01.004Z,34.20
2022-08-05T07:21:10.933Z,33.60
2022-08-05T07:26:22.467Z,33.20
2022-08-05T07:31:54.237Z,33.20
2022-08-05T07:36:55.420Z,33.80
2022-08-05T07:42:07.991Z,35.60
2022-08-05T07:47:20.146Z,35.40
2022-08-05T07:52:32.243Z,35.40
2022-08-05T07:57:52.234Z,34.50
2022-08-05T08:03:14.939Z,33.80
2022-08-05T08:08:22.713Z,33.30
2022-08-05T08:13:32.064Z,33.50
2022-08-05T08:18:50.094Z,34.20
2022-08-05T08:24:01.653Z,34.40
2022-08-05T08:30:03.101Z,34.40
2022-08-05T08:34:37.871Z,34.40
2022-08-05T08:39:49.684Z,34.40
2022-08-05T08:45:25.207Z,34.40
2022-08-05T08:50:31.907Z,34.30
2022-08-05T08:56:04.801Z,33.90
2022-08-05T09:01:16.648Z,34.10
2022-08-05T09:06:29.348Z,34.00
2022-08-05T09:11:50.706Z,33.70
2022-08-05T09:17:00.956Z,33.60
2022-08-05T09:22:23.625Z,33.50
2022-08-05T09:28:04.169Z,33.60
2022-08-05T09:33:08.610Z,34.10
2022-08-05T09:38:29.431Z,33.80
2022-08-05T09:43:42.190Z,33.50
2022-08-05T09:49:06.596Z,33.50
2022-08-05T09:54:13.741Z,33.20
2022-08-05T09:59:20.917Z,32.80
2022-08-05T10:04:39.866Z,32.50
2022-08-05T10:10:04.091Z,32.30
2022-08-05T10:15:27.799Z,31.80
2022-08-05T10:20:36.747Z,31.50
2022-08-05T10:25:44.179Z,31.30
2022-08-05T10:32:52.644Z,31.10
2022-08-05T10:36:17.329Z,30.80
2022-08-05T10:41:48.520Z,30.60
2022-08-05T10:47:00.539Z,30.50
2022-08-05T10:52:10.367Z,30.30
2022-08-05T10:57:31.843Z,30.20
2022-08-05T11:02:43.790Z,30.10
2022-08-05T11:08:02.799Z,30.00
2022-08-05T11:13:11.540Z,29.90
2022-08-05T11:18:35.588Z,29.80
2022-08-05T11:24:04.787Z,29.80
2022-08-05T11:29:42.704Z,29.70
2022-08-05T11:34:54.027Z,29.60
2022-08-05T11:40:03.559Z,29.50
2022-08-05T11:45:23.356Z,29.50
2022-08-05T11:50:41.711Z,29.40
2022-08-05T11:56:01.809Z,29.40
2022-08-05T12:01:19.011Z,29.40
2022-08-05T12:06:28.840Z,29.40
2022-08-05T12:11:40.557Z,29.40
2022-08-05T12:16:50.682Z,29.40
2022-08-05T12:21:57.252Z,29.00
2022-08-05T12:27:09.699Z,28.50
2022-08-05T12:32:27.381Z,28.20
2022-08-05T12:37:33.974Z,27.90
2022-08-05T12:42:40.310Z,27.70
2022-08-05T12:48:17.536Z,27.60
2022-08-05T12:53:18.086Z,27.50
2022-08-05T12:58:52.684Z,27.50
2022-08-05T13:03:53.848Z,27.50
2022-08-05T13:09:00.606Z,27.60
2022-08-05T13:14:14.912Z,27.70
2022-08-05T13:19:24.763Z,27.90
2022-08-05T13:24:57.643Z,28.00
2022-08-05T13:30:31.555Z,28.10
2022-08-05T13:35:42.421Z,28.00
2022-08-05T13:40:52.020Z,28.00
2022-08-05T13:45:59.300Z,28.10
2022-08-05T13:51:13.778Z,28.20
2022-08-05T13:56:20.150Z,28.10
2022-08-05T14:01:44.351Z,28.10
2022-08-05T14:06:58.647Z,28.10
2022-08-05T14:12:32.536Z,28.10
2022-08-05T14:17:39.295Z,28.00
2022-08-05T14:22:50.184Z,28.00
2022-08-05T14:27:58.355Z,27.90
2022-08-05T14:33:06.434Z,27.80
2022-08-05T14:38:32.064Z,27.80
2022-08-05T14:44:02.552Z,27.90
2022-08-05T14:49:08.513Z,27.80
2022-08-05T14:54:30.300Z,27.80
2022-08-05T14:59:40.234Z,27.90
2022-08-05T15:04:47.853Z,27.90
2022-08-05T15:09:55.798Z,27.90
2022-08-05T15:15:02.062Z,27.80
2022-08-05T15:20:19.023Z,27.80
2022-08-05T15:25:40.714Z,27.80
2022-08-05T15:30:54.507Z,27.70
2022-08-05T15:36:03.665Z,27.60
2022-08-05T15:41:21.973Z,27.50
2022-08-05T15:46:29.993Z,27.50
2022-08-05T15:52:12.505Z,27.50
2022-08-05T15:57:02.450Z,27.50
2022-08-05T16:02:14.714Z,27.60
2022-08-05T16:07:25.567Z,27.60
2022-08-05T16:12:35.596Z,27.70
2022-08-05T16:17:43.682Z,27.60
2022-08-05T16:23:03.581Z,27.60
2022-08-05T16:28:10.537Z,27.60
2022-08-05T16:33:16.985Z,27.60
2022-08-05T16:38:27.916Z,27.60
2022-08-05T16:43:36.968Z,27.60
2022-08-05T16:48:43.542Z,27.50
2022-08-05T16:54:05.422Z,27.50
2022-08-05T16:59:15.814Z,27.50
2022-08-05T17:04:23.879Z,27.60
2022-08-05T17:09:57.161Z,27.60
2022-08-05T17:14:59.148Z,27.50
2022-08-05T17:20:14.686Z,27.40
2022-08-05T17:25:33.556Z,27.40
2022-08-05T17:30:42.407Z,27.40
2022-08-05T17:36:07.877Z,27.40
2022-08-05T17:42:16.369Z,27.50
2022-08-05T17:46:41.787Z,27.50
2022-08-05T17:51:48.208Z,27.50
2022-08-05T17:56:56.013Z,27.50
2022-08-05T18:02:10.896Z,27.50
2022-08-05T18:07:16.821Z,27.50
2022-08-05T18:12:24.523Z,27.60
2022-08-05T18:18:00.240Z,27.60
2022-08-05T18:22:57.326Z,27.50
2022-08-05T18:28:05.432Z,27.50
2022-08-05T18:33:13.858Z,27.50
2022-08-05T18:38:26.507Z,27.50
2022-08-05T18:43:38.255Z,27.40
2022-08-05T18:48:51.919Z,27.40
2022-08-05T18:53:58.432Z,27.40
2022-08-05T18:59:42.116Z,27.30
2022-08-05T19:04:31.787Z,27.30
2022-08-05T19:09:40.309Z,27.20
2022-08-05T19:14:59.894Z,27.30
2022-08-05T19:20:10.605Z,27.30
2022-08-05T19:25:29.635Z,27.30
2022-08-05T19:30:36.618Z,27.30
2022-08-05T19:35:56.060Z,27.30
2022-08-05T19:41:06.710Z,27.20
2022-08-05T19:46:16.739Z,27.20
2022-08-05T19:51:56.416Z,27.20
2022-08-05T19:57:09.314Z,27.20
2022-08-05T20:02:17.661Z,27.10
2022-08-05T20:07:45.657Z,27.10
2022-08-05T20:12:51.028Z,27.00
2022-08-05T20:17:57.294Z,26.90
2022-08-05T20:23:06.228Z,26.90
2022-08-05T20:28:14.730Z,26.90
2022-08-05T20:33:21.354Z,26.90
2022-08-05T20:38:29.530Z,26.90
2022-08-05T20:43:59.851Z,26.80
2022-08-05T20:49:06.983Z,26.60
2022-08-05T20:54:14.393Z,26.30
2022-08-05T20:59:27.168Z,26.00
2022-08-05T21:04:47.706Z,25.50
2022-08-05T21:09:56.543Z,25.30
2022-08-05T21:15:04.014Z,25.00
2022-08-05T21:20:13.668Z,24.70
2022-08-05T21:25:39.159Z,24.60
2022-08-05T21:30:47.099Z,24.60
2022-08-05T21:35:58.514Z,24.60
2022-08-05T21:41:05.099Z,24.70
2022-08-05T21:46:11.985Z,24.80
2022-08-05T21:51:25.012Z,24.80
2022-08-05T21:56:51.383Z,24.80
2022-08-05T22:01:59.643Z,24.80
2022-08-05T22:07:05.434Z,24.80
2022-08-05T22:12:10.901Z,24.80
2022-08-05T22:17:16.783Z,24.70
2022-08-05T22:22:27.178Z,24.70
2022-08-05T22:28:10.676Z,24.70
2022-08-05T22:33:17.802Z,24.70
2022-08-05T22:38:43.629Z,24.70
2022-08-05T22:43:54.751Z,24.80
2022-08-05T22:49:01.453Z,24.90
2022-08-05T22:54:08.001Z,25.00
2022-08-05T22:59:43.966Z,25.10
2022-08-05T23:04:40.754Z,25.10
2022-08-05T23:09:57.017Z,25.20
2022-08-05T23:15:08.755Z,25.20
2022-08-05T23:20:18.062Z,25.20
2022-08-05T23:25:55.038Z,25.30
2022-08-05T23:30:53.220Z,25.30
2022-08-05T23:35:59.688Z,25.40
2022-08-05T23:41:05.107Z,25.50
2022-08-05T23:46:20.734Z,25.50
2022-08-05T23:51:27.817Z,25.70
2022-08-05T23:56:35.077Z,25.80
